createdAt,value
2018-02-21T00:00:22.344Z,39.80
2018-02-21T00:02:49.577Z,39.10
2018-02-21T00:05:16.006Z,40.80
2018-02-21T00:07:42.455Z,39.20
2018-02-21T00:10:08.637Z,39.60
2018-02-21T00:12:34.829Z,40.27
2018-02-21T00:15:01.110Z,40.47
2018-02-21T00:17:27.323Z,37.50
2018-02-21T00:19:53.533Z,41.80
2018-02-21T00:22:19.806Z,40.40
2018-02-21T00:24:45.981Z,42.03
2018-02-21T00:27:12.202Z,41.50
2018-02-21T00:29:38.428Z,43.23
2018-02-21T00:32:04.669Z,42.30
2018-02-21T00:34:30.865Z,38.77
2018-02-21T00:36:57.801Z,43.23
2018-02-21T00:39:24.122Z,42.40
2018-02-21T00:41:50.313Z,39.80
2018-02-21T00:44:17.253Z,42.77
2018-02-21T00:46:43.520Z,43.23
2018-02-21T00:49:09.716Z,41.97
2018-02-21T00:51:35.923Z,41.87
2018-02-21T00:54:02.188Z,43.60
2018-02-21T00:56:28.400Z,41.67
2018-02-21T00:58:54.621Z,42.30
2018-02-21T01:01:20.882Z,42.27
2018-02-21T01:03:47.108Z,42.23
2018-02-21T01:06:14.033Z,43.63
2018-02-21T01:08:40.260Z,43.10
2018-02-21T01:11:06.464Z,42.33
2018-02-21T01:13:32.657Z,46.07
2018-02-21T01:15:58.869Z,43.80
2018-02-21T01:20:57.424Z,41.30
2018-02-21T01:23:23.807Z,43.97
2018-02-21T01:25:49.994Z,42.37
2018-02-21T01:28:16.168Z,41.83
2018-02-21T01:30:43.349Z,33.47
2018-02-21T01:33:09.561Z,41.00
2018-02-21T01:35:35.750Z,40.37
2018-02-21T01:38:02.040Z,39.90
2018-02-21T01:40:28.262Z,42.20
2018-02-21T01:42:54.416Z,42.20
2018-02-21T01:45:20.623Z,37.90
2018-02-21T01:47:46.881Z,44.23
2018-02-21T01:50:13.144Z,41.20
2018-02-21T01:52:39.309Z,44.87
2018-02-21T01:55:06.532Z,41.17
2018-02-21T01:57:32.718Z,38.13
2018-02-21T01:59:58.938Z,41.33
2018-02-21T02:02:25.178Z,45.53
2018-02-21T02:04:52.160Z,41.60
2018-02-21T02:07:18.377Z,37.33
2018-02-21T02:09:44.596Z,49.47
2018-02-21T02:12:10.806Z,46.03
2018-02-21T02:14:36.989Z,47.23
2018-02-21T02:17:04.088Z,44.60
2018-02-21T02:19:30.281Z,44.10
2018-02-21T02:21:56.457Z,41.73
2018-02-21T02:24:22.678Z,43.00
2018-02-21T02:26:49.786Z,44.63
2018-02-21T02:29:16.828Z,49.17
2018-02-21T02:31:43.071Z,48.07
2018-02-21T02:34:09.992Z,44.43
2018-02-21T02:36:36.224Z,49.30
2018-02-21T02:39:14.653Z,47.20
2018-02-21T02:41:40.928Z,47.87
2018-02-21T02:44:07.106Z,46.63
2018-02-21T02:46:33.365Z,49.27
2018-02-21T02:49:00.530Z,49.60
2018-02-21T02:51:26.746Z,48.97
2018-02-21T02:53:52.944Z,49.03
2018-02-21T02:56:19.899Z,50.20
2018-02-21T02:58:47.092Z,47.47
2018-02-21T03:01:13.310Z,49.37
2018-02-21T03:03:40.261Z,52.70
2018-02-21T03:06:06.673Z,49.27
2018-02-21T03:08:32.922Z,53.67
2018-02-21T03:10:59.125Z,51.77
2018-02-21T03:13:25.613Z,50.47
2018-02-21T03:15:51.813Z,52.37
2018-02-21T03:18:18.012Z,54.67
2018-02-21T03:20:44.976Z,50.63
2018-02-21T03:23:11.340Z,49.43
2018-02-21T03:25:37.533Z,52.03
2018-02-21T03:28:03.729Z,54.10
2018-02-21T03:30:30.438Z,53.27
2018-02-21T03:32:56.669Z,50.53
2018-02-21T03:35:22.872Z,51.10
2018-02-21T03:37:49.303Z,49.97
2018-02-21T03:40:15.508Z,52.67
2018-02-21T03:42:41.725Z,54.10
2018-02-21T03:45:08.164Z,49.27
2018-02-21T03:47:34.371Z,50.93
2018-02-21T03:50:00.616Z,52.20
2018-02-21T03:52:26.972Z,49.13
2018-02-21T03:54:53.150Z,51.67
2018-02-21T03:57:19.405Z,50.77
2018-02-21T03:59:45.716Z,51.40
2018-02-21T04:02:11.921Z,35.00
2018-02-21T04:04:38.156Z,48.63
2018-02-21T04:07:04.497Z,46.43
2018-02-21T04:09:30.697Z,47.50
2018-02-21T04:11:56.908Z,48.93
2018-02-21T04:14:23.202Z,49.47
2018-02-21T04:16:50.234Z,47.23
2018-02-21T04:19:16.450Z,45.87
2018-02-21T04:21:42.711Z,45.00
2018-02-21T04:24:09.014Z,44.73
2018-02-21T04:26:35.296Z,39.00
2018-02-21T04:29:01.500Z,48.80
2018-02-21T04:31:27.965Z,46.60
2018-02-21T04:33:54.165Z,45.23
2018-02-21T04:36:20.377Z,43.83
2018-02-21T04:38:46.793Z,44.87
2018-02-21T04:41:13.062Z,44.57
2018-02-21T04:43:39.268Z,44.93
2018-02-21T04:46:05.699Z,44.10
2018-02-21T04:48:31.954Z,45.17
2018-02-21T04:50:58.150Z,42.50
2018-02-21T04:53:24.600Z,46.60
2018-02-21T04:59:24.134Z,47.87
2018-02-21T05:01:50.373Z,42.27
2018-02-21T05:04:16.602Z,46.20
2018-02-21T05:06:42.841Z,46.33
2018-02-21T05:09:09.032Z,46.10
2018-02-21T05:11:35.265Z,42.15
2018-02-21T05:14:03.077Z,47.50
2018-02-21T05:16:29.280Z,44.40
2018-02-21T05:18:56.217Z,44.63
2018-02-21T05:21:22.568Z,46.37
2018-02-21T05:23:48.762Z,49.30
2018-02-21T05:26:14.989Z,45.80
2018-02-21T05:28:41.197Z,51.40
2018-02-21T05:31:07.389Z,45.77
2018-02-21T05:33:33.564Z,45.90
2018-02-21T05:35:59.926Z,43.30
2018-02-21T05:38:27.028Z,43.53
2018-02-21T05:40:53.944Z,45.33
2018-02-21T05:43:20.145Z,45.87
2018-02-21T05:45:46.392Z,42.03
2018-02-21T05:48:12.625Z,45.57
2018-02-21T05:50:38.797Z,44.53
2018-02-21T05:53:05.090Z,45.20
2018-02-21T05:55:31.263Z,45.87
2018-02-21T05:57:57.462Z,46.60
2018-02-21T06:00:23.725Z,44.07
2018-02-21T06:02:49.953Z,45.63
2018-02-21T06:05:16.146Z,45.83
2018-02-21T06:07:43.125Z,42.07
2018-02-21T06:10:10.225Z,48.83
2018-02-21T06:12:36.440Z,44.67
2018-02-21T06:15:02.673Z,46.67
2018-02-21T06:17:28.933Z,46.70
2018-02-21T06:19:55.150Z,46.80
2018-02-21T06:22:21.354Z,45.83
2018-02-21T06:24:48.530Z,45.70
2018-02-21T06:27:14.799Z,47.43
2018-02-21T06:29:41.194Z,46.17
2018-02-21T06:32:07.624Z,34.57
2018-02-21T06:34:33.790Z,48.00
2018-02-21T06:37:06.340Z,45.67
2018-02-21T06:39:33.597Z,46.30
2018-02-21T06:42:00.430Z,48.07
2018-02-21T06:44:28.456Z,47.13
2018-02-21T06:46:54.678Z,46.80
2018-02-21T06:49:21.042Z,46.60
2018-02-21T06:51:47.254Z,46.53
2018-02-21T06:54:14.049Z,45.77
2018-02-21T06:56:40.273Z,45.13
2018-02-21T06:59:06.561Z,46.40
2018-02-21T07:01:33.501Z,45.40
2018-02-21T07:04:00.800Z,47.80
2018-02-21T07:06:27.012Z,46.73
2018-02-21T07:08:53.221Z,48.20
2018-02-21T07:11:19.417Z,44.10
2018-02-21T07:13:46.348Z,46.70
2018-02-21T07:16:12.652Z,44.40
2018-02-21T07:18:38.921Z,44.23
2018-02-21T07:21:05.195Z,43.13
2018-02-21T07:23:32.230Z,43.70
2018-02-21T07:25:58.453Z,43.33
2018-02-21T07:28:24.661Z,48.03
2018-02-21T07:30:50.878Z,42.00
2018-02-21T07:33:17.092Z,43.23
2018-02-21T07:35:43.303Z,45.43
2018-02-21T07:38:09.777Z,41.93
2018-02-21T07:40:36.173Z,44.47
2018-02-21T07:43:02.374Z,39.20
2018-02-21T07:45:28.816Z,43.10
2018-02-21T07:47:55.055Z,45.57
2018-02-21T07:50:21.270Z,38.53
2018-02-21T07:52:47.637Z,41.37
2018-02-21T07:55:14.117Z,39.40
2018-02-21T07:57:40.404Z,38.77
2018-02-21T08:00:06.677Z,38.60
2018-02-21T08:02:32.874Z,40.47
2018-02-21T08:04:59.084Z,39.83
2018-02-21T08:07:26.089Z,40.90
2018-02-21T08:09:52.430Z,36.80
2018-02-21T08:12:18.676Z,40.13
2018-02-21T08:14:44.874Z,40.63
2018-02-21T08:17:12.029Z,39.07
2018-02-21T08:19:38.987Z,37.47
2018-02-21T08:22:05.950Z,40.30
2018-02-21T08:24:32.150Z,42.50
2018-02-21T08:26:58.553Z,39.50
2018-02-21T08:29:24.757Z,22.27
2018-02-21T08:31:51.707Z,37.30
2018-02-21T08:34:18.150Z,37.93
2018-02-21T08:36:44.376Z,36.77
2018-02-21T08:39:10.580Z,30.37
2018-02-21T08:41:37.114Z,35.30
2018-02-21T08:44:03.439Z,38.67
2018-02-21T08:46:29.653Z,36.50
2018-02-21T08:48:56.077Z,35.23
2018-02-21T08:51:22.320Z,36.90
2018-02-21T08:53:48.565Z,34.63
2018-02-21T08:56:14.779Z,38.30
2018-02-21T08:58:40.988Z,38.50
2018-02-21T09:01:07.197Z,34.20
2018-02-21T09:03:34.444Z,39.17
2018-02-21T09:06:00.875Z,39.57
2018-02-21T09:08:27.099Z,34.40
2018-02-21T09:10:54.045Z,37.23
2018-02-21T09:13:20.456Z,35.87
2018-02-21T09:15:46.662Z,34.23
2018-02-21T09:18:12.865Z,35.80
2018-02-21T09:20:39.065Z,37.20
2018-02-21T09:23:05.240Z,33.80
2018-02-21T09:25:31.417Z,34.40
2018-02-21T09:27:57.651Z,34.80
2018-02-21T09:30:23.840Z,32.63
2018-02-21T09:32:50.046Z,30.80
2018-02-21T09:35:16.399Z,33.63
2018-02-21T09:37:42.577Z,33.23
2018-02-21T09:40:08.808Z,32.30
2018-02-21T09:42:35.028Z,33.00
2018-02-21T09:45:01.208Z,34.23
2018-02-21T09:47:28.181Z,31.83
2018-02-21T09:49:55.104Z,30.90
2018-02-21T09:52:21.455Z,32.00
2018-02-21T09:54:47.646Z,32.03
2018-02-21T09:57:13.827Z,34.30
2018-02-21T09:59:40.210Z,30.77
2018-02-21T10:02:07.130Z,34.70
2018-02-21T10:04:33.391Z,28.00
2018-02-21T10:06:59.588Z,32.63
2018-02-21T10:09:26.082Z,29.93
2018-02-21T10:11:52.307Z,21.53
2018-02-21T10:14:18.549Z,32.63
2018-02-21T10:16:44.949Z,29.90
2018-02-21T10:19:11.153Z,32.03
2018-02-21T10:21:38.145Z,32.83
2018-02-21T10:24:04.403Z,30.17
2018-02-21T10:26:30.604Z,31.40
2018-02-21T10:28:56.890Z,35.03
2018-02-21T10:31:23.860Z,31.33
2018-02-21T10:33:50.079Z,32.30
2018-02-21T10:36:16.285Z,30.37
2018-02-21T10:38:43.213Z,32.67
2018-02-21T10:41:09.597Z,31.33
2018-02-21T10:43:35.813Z,31.07
2018-02-21T10:46:02.026Z,26.10
2018-02-21T10:48:28.402Z,26.80
2018-02-21T10:50:54.594Z,28.53
2018-02-21T10:53:20.789Z,29.57
2018-02-21T10:55:47.185Z,30.20
2018-02-21T10:58:13.500Z,29.93
2018-02-21T11:00:45.815Z,29.57
2018-02-21T11:03:12.147Z,33.17
2018-02-21T11:05:38.349Z,29.37
2018-02-21T11:08:04.619Z,26.60
2018-02-21T11:10:30.926Z,29.90
2018-02-21T11:12:57.897Z,27.13
2018-02-21T11:15:24.861Z,28.40
2018-02-21T11:17:51.803Z,28.97
2018-02-21T11:20:18.859Z,18.00
2018-02-21T11:22:45.076Z,21.00
2018-02-21T11:25:11.260Z,29.30
2018-02-21T11:27:37.668Z,21.70
2018-02-21T11:30:03.975Z,26.60
2018-02-21T11:32:30.132Z,30.53
2018-02-21T11:34:56.588Z,25.90
2018-02-21T11:37:22.824Z,30.47
2018-02-21T11:39:49.075Z,28.60
2018-02-21T11:42:15.475Z,26.20
2018-02-21T11:44:41.723Z,27.03
2018-02-21T11:47:08.098Z,25.90
2018-02-21T11:49:34.345Z,27.30
2018-02-21T11:52:00.546Z,26.13
2018-02-21T11:54:26.768Z,27.20
2018-02-21T11:56:52.967Z,25.60
2018-02-21T11:59:19.323Z,23.70
2018-02-21T12:01:45.544Z,26.80
2018-02-21T12:04:11.848Z,24.93
2018-02-21T12:06:38.149Z,25.90
2018-02-21T12:09:04.409Z,25.20
2018-02-21T12:11:30.616Z,26.10
2018-02-21T12:13:56.840Z,25.37
2018-02-21T12:16:23.108Z,17.27
2018-02-21T12:18:50.072Z,25.87
2018-02-21T12:21:16.365Z,25.27
2018-02-21T12:23:42.632Z,24.17
2018-02-21T12:26:08.904Z,25.47
2018-02-21T12:28:35.794Z,25.93
2018-02-21T12:31:02.025Z,26.67
2018-02-21T12:33:28.221Z,25.50
2018-02-21T12:35:54.541Z,25.30
2018-02-21T12:38:20.751Z,25.50
2018-02-21T12:40:53.033Z,26.50
2018-02-21T12:43:20.140Z,24.87
2018-02-21T12:45:46.392Z,25.90
2018-02-21T12:48:12.610Z,25.30
2018-02-21T12:50:38.940Z,26.43
2018-02-21T12:53:05.148Z,26.23
2018-02-21T12:55:31.368Z,25.60
2018-02-21T12:57:57.618Z,20.03
2018-02-21T13:00:24.773Z,22.37
2018-02-21T13:02:50.934Z,24.70
2018-02-21T13:05:17.952Z,24.27
2018-02-21T13:07:44.242Z,23.43
2018-02-21T13:10:10.469Z,25.53
2018-02-21T13:12:36.795Z,25.50
2018-02-21T13:15:03.045Z,25.20
2018-02-21T13:17:29.225Z,22.50
2018-02-21T13:19:55.532Z,22.13
2018-02-21T13:22:21.762Z,24.27
2018-02-21T13:24:47.996Z,24.00
2018-02-21T13:27:14.188Z,23.50
2018-02-21T13:29:40.528Z,25.17
2018-02-21T13:32:06.749Z,23.23
2018-02-21T13:34:33.013Z,21.37
2018-02-21T13:36:59.265Z,23.57
2018-02-21T13:39:25.496Z,23.23
2018-02-21T13:41:51.720Z,22.40
2018-02-21T13:44:18.075Z,23.37
2018-02-21T13:46:44.254Z,22.57
2018-02-21T13:49:10.456Z,22.80
2018-02-21T13:51:36.677Z,22.70
2018-02-21T13:54:04.879Z,23.40
2018-02-21T13:56:31.055Z,19.80
2018-02-21T13:58:57.253Z,22.20
2018-02-21T14:01:24.208Z,21.40
2018-02-21T14:03:51.210Z,23.70
2018-02-21T14:06:17.414Z,21.80
2018-02-21T14:08:43.595Z,22.40
2018-02-21T14:11:09.778Z,20.97
2018-02-21T14:13:36.064Z,19.50
2018-02-21T14:16:02.274Z,22.50
2018-02-21T14:18:28.522Z,21.07
2018-02-21T14:20:54.789Z,22.03
2018-02-21T14:23:21.007Z,22.10
2018-02-21T14:25:47.202Z,20.80
2018-02-21T14:28:13.385Z,21.40
2018-02-21T14:30:39.698Z,17.53
2018-02-21T14:33:06.804Z,18.20
2018-02-21T14:35:33.003Z,20.83
2018-02-21T14:37:59.942Z,20.00
2018-02-21T14:40:26.209Z,18.93
2018-02-21T14:42:53.196Z,17.20
2018-02-21T14:45:19.445Z,19.57
2018-02-21T14:47:45.630Z,12.20
2018-02-21T14:50:11.861Z,19.60
2018-02-21T14:52:38.045Z,18.30
2018-02-21T14:55:04.300Z,20.00
2018-02-21T14:57:31.365Z,19.53
2018-02-21T14:59:57.582Z,20.17
2018-02-21T15:02:23.791Z,21.70
2018-02-21T15:04:50.128Z,20.63
2018-02-21T15:07:16.292Z,21.37
2018-02-21T15:09:42.509Z,19.50
2018-02-21T15:12:09.846Z,19.13
2018-02-21T15:14:36.043Z,18.97
2018-02-21T15:17:03.013Z,21.67
2018-02-21T15:19:29.213Z,56.57
2018-02-21T15:21:55.584Z,19.00
2018-02-21T15:24:21.794Z,20.97
2018-02-21T15:26:48.011Z,18.00
2018-02-21T15:29:15.650Z,20.10
2018-02-21T15:31:42.205Z,22.10
2018-02-21T15:34:08.601Z,20.53
2018-02-21T15:36:35.034Z,21.30
2018-02-21T15:39:02.106Z,22.07
2018-02-21T15:41:28.454Z,18.00
2018-02-21T15:43:54.862Z,39.57
2018-02-21T15:46:21.500Z,19.93
2018-02-21T15:48:48.151Z,26.03
2018-02-21T15:51:16.833Z,23.93
2018-02-21T15:53:43.942Z,39.03
2018-02-21T15:56:10.406Z,19.20
2018-02-21T15:58:37.132Z,26.50
2018-02-21T16:01:03.580Z,22.27
2018-02-21T16:03:29.971Z,25.73
2018-02-21T16:05:56.362Z,21.73
2018-02-21T16:08:24.489Z,40.43
2018-02-21T16:10:50.972Z,27.20
2018-02-21T16:13:17.451Z,18.40
2018-02-21T16:15:43.807Z,29.37
2018-02-21T16:18:10.222Z,20.20
2018-02-21T16:20:36.673Z,21.60
2018-02-21T16:23:02.986Z,61.87
2018-02-21T16:25:30.224Z,18.33
2018-02-21T16:27:56.401Z,20.13
2018-02-21T16:30:23.372Z,19.97
2018-02-21T16:32:49.588Z,20.60
2018-02-21T16:35:15.829Z,16.60
2018-02-21T16:37:42.009Z,17.20
2018-02-21T16:40:08.189Z,16.93
2018-02-21T16:42:37.092Z,15.20
2018-02-21T16:45:03.594Z,15.20
2018-02-21T16:47:29.776Z,16.57
2018-02-21T16:49:56.002Z,15.03
2018-02-21T16:52:22.304Z,17.10
2018-02-21T16:54:49.216Z,17.43
2018-02-21T16:57:15.422Z,17.00
2018-02-21T16:59:41.613Z,16.90
2018-02-21T17:02:07.822Z,17.53
2018-02-21T17:04:34.009Z,17.53
2018-02-21T17:07:00.951Z,16.40
2018-02-21T17:09:27.149Z,16.53
2018-02-21T17:11:53.352Z,16.13
2018-02-21T17:14:19.555Z,19.83
2018-02-21T17:16:45.824Z,17.87
2018-02-21T17:19:12.745Z,18.97
2018-02-21T17:21:38.941Z,20.67
2018-02-21T17:24:05.424Z,19.47
2018-02-21T17:26:31.640Z,19.70
2018-02-21T17:28:57.827Z,17.87
2018-02-21T17:31:24.461Z,18.03
2018-02-21T17:33:50.673Z,19.37
2018-02-21T17:36:16.856Z,19.23
2018-02-21T17:38:43.091Z,18.60
2018-02-21T17:41:15.384Z,18.27
2018-02-21T17:43:41.616Z,18.20
2018-02-21T17:46:07.943Z,18.70
2018-02-21T17:48:34.144Z,19.47
2018-02-21T17:51:01.068Z,18.23
2018-02-21T17:53:27.781Z,20.30
2018-02-21T17:55:54.047Z,22.27
2018-02-21T17:58:20.278Z,19.60
2018-02-21T18:00:46.656Z,17.23
2018-02-21T18:03:12.929Z,19.07
2018-02-21T18:05:39.145Z,21.00
2018-02-21T18:08:05.385Z,20.47
2018-02-21T18:10:32.545Z,20.10
2018-02-21T18:12:58.765Z,21.43
2018-02-21T18:15:25.000Z,23.00
2018-02-21T18:17:51.405Z,20.67
2018-02-21T18:20:17.662Z,23.33
2018-02-21T18:22:43.847Z,52.23
2018-02-21T18:25:10.503Z,22.00
2018-02-21T18:27:36.701Z,37.03
2018-02-21T18:30:02.981Z,28.47
2018-02-21T18:32:29.362Z,22.50
2018-02-21T18:34:55.686Z,29.83
2018-02-21T18:37:22.642Z,27.53
2018-02-21T18:39:48.896Z,29.80
2018-02-21T18:42:15.383Z,25.70
2018-02-21T18:44:41.628Z,30.10
2018-02-21T18:47:08.913Z,34.80
2018-02-21T18:49:35.241Z,29.47
2018-02-21T18:52:02.712Z,24.70
2018-02-21T18:54:30.019Z,28.50
2018-02-21T18:56:56.983Z,28.00
2018-02-21T18:59:23.171Z,27.40
2018-02-21T19:01:50.404Z,29.80
2018-02-21T19:04:16.725Z,30.77
2018-02-21T19:06:43.674Z,31.33
2018-02-21T19:09:11.420Z,32.40
2018-02-21T19:11:37.765Z,32.73
2018-02-21T19:14:04.070Z,32.07
2018-02-21T19:16:30.283Z,30.23
2018-02-21T19:18:56.858Z,31.80
2018-02-21T19:21:23.077Z,33.60
2018-02-21T19:23:49.278Z,30.03
2018-02-21T19:26:15.616Z,29.67
2018-02-21T19:28:41.835Z,34.90
2018-02-21T19:31:08.097Z,31.60
2018-02-21T19:33:34.368Z,30.97
2018-02-21T19:36:00.552Z,30.00
2018-02-21T19:38:26.774Z,31.80
2018-02-21T19:40:53.732Z,31.27
2018-02-21T19:43:20.077Z,33.67
2018-02-21T19:45:46.276Z,30.87
2018-02-21T19:48:12.456Z,32.60
2018-02-21T19:50:39.477Z,34.53
2018-02-21T19:53:05.651Z,32.13
2018-02-21T19:55:31.876Z,34.27
2018-02-21T19:57:58.250Z,32.93
2018-02-21T20:00:24.452Z,34.53
2018-02-21T20:02:50.662Z,33.10
2018-02-21T20:05:16.953Z,32.90
2018-02-21T20:07:43.333Z,32.93
2018-02-21T20:10:09.606Z,33.57
2018-02-21T20:12:35.927Z,33.27
2018-02-21T20:15:02.250Z,34.93
2018-02-21T20:17:28.496Z,34.23
2018-02-21T20:19:54.987Z,36.53
2018-02-21T20:22:21.200Z,35.40
2018-02-21T20:24:47.465Z,35.40
2018-02-21T20:27:13.735Z,35.97
2018-02-21T20:29:39.897Z,32.57
2018-02-21T20:32:06.182Z,34.97
2018-02-21T20:34:32.398Z,35.67
2018-02-21T20:36:58.816Z,30.63
2018-02-21T20:39:25.058Z,34.03
2018-02-21T20:41:51.328Z,35.40
2018-02-21T20:44:17.773Z,31.93
2018-02-21T20:46:44.053Z,32.47
2018-02-21T20:49:10.297Z,34.70
2018-02-21T20:51:36.596Z,33.53
2018-02-21T20:54:02.861Z,33.80
2018-02-21T20:56:29.117Z,31.00
2018-02-21T20:58:55.645Z,33.90
2018-02-21T21:01:21.894Z,33.03
2018-02-21T21:03:48.126Z,33.53
2018-02-21T21:06:14.666Z,29.87
2018-02-21T21:08:40.953Z,31.60
2018-02-21T21:11:07.128Z,32.20
2018-02-21T21:13:35.311Z,33.77
2018-02-21T21:16:02.299Z,35.40
2018-02-21T21:18:28.533Z,31.67
2018-02-21T21:20:54.755Z,30.67
2018-02-21T21:23:21.493Z,32.87
2018-02-21T21:25:48.545Z,32.07
2018-02-21T21:28:14.784Z,30.80
2018-02-21T21:30:41.006Z,32.03
2018-02-21T21:33:07.445Z,30.60
2018-02-21T21:35:33.704Z,31.73
2018-02-21T21:38:00.070Z,30.47
2018-02-21T21:40:26.608Z,32.67
2018-02-21T21:42:52.835Z,32.03
2018-02-21T21:45:19.112Z,34.03
2018-02-21T21:47:45.366Z,29.47
2018-02-21T21:50:11.572Z,32.00
2018-02-21T21:52:37.810Z,29.53
2018-02-21T21:55:04.768Z,31.00
2018-02-21T21:57:31.904Z,31.10
2018-02-21T21:59:58.086Z,31.60
2018-02-21T22:02:25.057Z,31.40
2018-02-21T22:04:51.454Z,27.93
2018-02-21T22:07:17.721Z,29.73
2018-02-21T22:09:43.910Z,29.73
2018-02-21T22:12:10.363Z,29.30
2018-02-21T22:14:36.592Z,29.67
2018-02-21T22:17:02.833Z,30.08
2018-02-21T22:19:29.216Z,28.73
2018-02-21T22:21:55.444Z,30.35
2018-02-21T22:24:21.650Z,30.27
2018-02-21T22:26:47.955Z,27.03
2018-02-21T22:29:14.275Z,29.67
2018-02-21T22:31:40.485Z,29.80
2018-02-21T22:34:06.724Z,30.80
2018-02-21T22:36:32.942Z,29.20
2018-02-21T22:38:59.177Z,30.67
2018-02-21T22:41:25.404Z,29.67
2018-02-21T22:43:52.659Z,30.47
2018-02-21T22:46:18.838Z,30.08
2018-02-21T22:48:45.050Z,31.40
2018-02-21T22:51:12.867Z,29.90
2018-02-21T22:53:39.116Z,33.40
2018-02-21T22:56:05.315Z,31.80
2018-02-21T22:58:31.523Z,29.33
2018-02-21T23:00:57.813Z,29.80
2018-02-21T23:03:24.073Z,28.87
2018-02-21T23:05:50.273Z,29.67
2018-02-21T23:08:16.511Z,29.23
2018-02-21T23:10:42.723Z,30.23
2018-02-21T23:13:08.981Z,31.50
2018-02-21T23:15:36.285Z,26.93
2018-02-21T23:18:02.515Z,28.60
2018-02-21T23:20:29.564Z,30.20
2018-02-21T23:22:55.737Z,28.10
2018-02-21T23:25:22.455Z,32.23
2018-02-21T23:27:48.668Z,31.60
2018-02-21T23:30:15.940Z,29.57
2018-02-21T23:32:42.333Z,29.47
2018-02-21T23:35:08.617Z,26.37
2018-02-21T23:37:34.819Z,30.85
2018-02-21T23:40:01.262Z,28.67
2018-02-21T23:42:27.480Z,27.57
2018-02-21T23:44:54.458Z,29.27
2018-02-21T23:47:20.698Z,27.80
2018-02-21T23:49:47.377Z,27.87
2018-02-21T23:52:13.574Z,26.93
2018-02-21T23:54:39.824Z,28.90
2018-02-21T23:57:06.815Z,28.67
2018-02-21T23:59:33.053Z,27.20
